Time;durP1;ratioP1;P1;durP2;ratioP2;P2;SDS_P1;SDS_P2;PMS_P1;PMS_P2;Temp;Humidity;BMP_temperature;BMP_pressure;BME280_temperature;BME280_humidity;BME280_pressure;Samples;Min_cycle;Max_cycle;Signal;HPM_P1;HPM_P2
2022/10/17 00:00:47;;;;;;;7.93;6.15;;;;;;;18.50;61.66;101494.50;5050755;28;20037;-68
2022/10/17 00:03:13;;;;;;;7.60;6.22;;;;;;;18.50;61.60;101498.09;5050338;28;20053;-68
2022/10/17 00:05:43;;;;;;;7.38;6.35;;;;;;;18.50;61.81;101494.50;5050714;28;20041;-68
2022/10/17 00:08:11;;;;;;;14.45;6.85;;;;;;;18.50;61.78;101491.78;5050849;28;20102;-68
2022/10/17 00:10:38;;;;;;;10.35;6.97;;;;;;;18.51;62.00;101496.22;5050371;28;20453;-69
2022/10/17 00:13:06;;;;;;;10.52;7.15;;;;;;;18.51;62.06;101498.94;5050140;28;20045;-68
2022/10/17 00:15:33;;;;;;;8.85;6.80;;;;;;;18.51;61.73;101496.22;5050393;28;20049;-68
2022/10/17 00:18:00;;;;;;;9.73;6.70;;;;;;;18.52;62.22;101503.38;5050717;28;20094;-68
2022/10/17 00:20:26;;;;;;;7.05;6.35;;;;;;;18.51;62.05;101499.81;5049360;28;20434;-68
2022/10/17 00:22:53;;;;;;;9.90;6.95;;;;;;;18.52;61.96;101497.94;5048648;28;20053;-68
2022/10/17 00:25:21;;;;;;;11.48;6.82;;;;;;;18.52;62.25;101493.34;5050608;28;20091;-68
2022/10/17 00:27:47;;;;;;;9.60;7.07;;;;;;;18.53;61.99;101492.34;5050108;28;20061;-69
2022/10/17 00:30:15;;;;;;;18.27;7.28;;;;;;;18.55;62.05;101484.91;5053899;28;20098;-68
2022/10/17 00:32:41;;;;;;;10.50;6.38;;;;;;;18.58;62.35;101487.38;5053419;28;20037;-68
2022/10/17 00:35:09;;;;;;;7.65;6.07;;;;;;;18.59;62.21;101483.66;5053940;28;20095;-68
2022/10/17 00:37:36;;;;;;;8.23;6.25;;;;;;;18.60;62.25;101487.22;5052528;28;20049;-68
2022/10/17 00:40:04;;;;;;;10.25;6.82;;;;;;;18.60;61.99;101493.53;5053805;28;20095;-68
2022/10/17 00:42:30;;;;;;;8.15;7.10;;;;;;;18.60;62.31;101495.38;5053185;28;20090;-68
2022/10/17 00:45:19;;;;;;;8.38;7.20;;;;;;;18.58;62.32;101486.47;5053651;28;20143;-68
2022/10/17 00:47:59;;;;;;;8.75;6.88;;;;;;;18.59;62.31;101480.94;5052533;28;20112;-68
2022/10/17 00:50:27;;;;;;;7.00;6.30;;;;;;;18.59;62.02;101469.19;5053554;28;20499;-68
2022/10/17 00:53:00;;;;;;;10.27;6.85;;;;;;;18.59;62.26;101471.91;5053276;28;20514;-68
2022/10/17 00:55:30;;;;;;;11.48;7.47;;;;;;;18.58;62.56;101481.03;5053325;28;20049;-68
2022/10/17 00:58:01;;;;;;;8.70;6.90;;;;;;;18.57;62.64;101463.84;5052162;28;20245;-68
2022/10/17 01:00:28;;;;;;;9.75;7.18;;;;;;;18.59;62.62;101466.47;5053176;28;20505;-69
2022/10/17 01:02:54;;;;;;;8.82;6.93;;;;;;;18.60;62.65;101468.19;5051655;28;20430;-67
2022/10/17 01:05:21;;;;;;;9.30;7.30;;;;;;;18.59;62.81;101469.19;5053209;28;20037;-67
2022/10/17 01:07:51;;;;;;;9.38;8.18;;;;;;;18.59;62.88;101477.34;5052086;28;20056;-67
2022/10/17 01:10:19;;;;;;;8.95;7.55;;;;;;;18.59;62.67;101478.19;5052078;28;20442;-68
2022/10/17 01:13:01;;;;;;;9.93;7.57;;;;;;;18.60;63.25;101473.63;5051942;28;20099;-67
2022/10/17 01:15:43;;;;;;;9.57;7.43;;;;;;;18.61;62.78;101469.91;5052170;28;20072;-68
2022/10/17 01:18:27;;;;;;;10.23;6.93;;;;;;;18.61;63.21;101462.63;5051559;28;20053;-68
2022/10/17 01:21:10;;;;;;;8.43;6.80;;;;;;;18.62;63.21;101468.91;5034670;28;20076;-68
2022/10/17 01:24:20;;;;;;;7.88;6.72;;;;;;;18.61;63.07;101464.47;5051637;28;20045;-69
2022/10/17 01:26:55;;;;;;;8.02;6.43;;;;;;;18.62;63.05;101466.19;5041721;28;20103;-68
2022/10/17 01:29:46;;;;;;;9.30;6.55;;;;;;;18.60;63.14;101466.31;5052958;28;20060;-69
2022/10/17 01:32:18;;;;;;;9.10;6.95;;;;;;;18.63;63.32;101473.38;5031490;28;20042;-68
2022/10/17 01:34:51;;;;;;;8.90;6.72;;;;;;;18.62;63.50;101469.78;5031543;28;20581;-68
2022/10/17 01:37:31;;;;;;;8.57;7.68;;;;;;;18.63;63.45;101462.47;5031472;28;20080;-68
2022/10/17 01:40:36;;;;;;;16.15;8.20;;;;;;;18.64;63.54;101465.06;5035756;28;20041;-68
2022/10/17 01:43:12;;;;;;;9.93;7.90;;;;;;;18.68;63.53;101460.19;5040576;28;20041;-68
2022/10/17 01:46:01;;;;;;;10.60;7.90;;;;;;;18.69;63.70;101454.59;5052555;28;20045;-68
2022/10/17 01:48:37;;;;;;;13.43;7.57;;;;;;;18.73;63.65;101452.44;5051312;28;20552;-68
2022/10/17 01:51:12;;;;;;;12.93;7.60;;;;;;;18.75;63.95;101452.28;5051966;28;20107;-68
2022/10/17 01:53:46;;;;;;;10.82;7.82;;;;;;;18.76;63.61;101438.53;5051903;28;20495;-68
2022/10/17 01:56:14;;;;;;;8.70;7.80;;;;;;;18.78;63.83;101452.00;5052506;28;20091;-69
2022/10/17 01:58:50;;;;;;;8.50;7.28;;;;;;;18.80;63.68;101439.94;5051502;28;20128;-68
2022/10/17 02:01:18;;;;;;;14.55;8.48;;;;;;;18.82;64.08;101437.94;5050940;28;20052;-69
2022/10/17 02:03:47;;;;;;;11.35;8.18;;;;;;;18.85;64.18;101434.06;5052105;28;20044;-68
2022/10/17 02:06:14;;;;;;;11.45;8.32;;;;;;;18.87;64.14;101441.06;5052310;28;20053;-68
2022/10/17 02:08:46;;;;;;;9.52;8.05;;;;;;;18.89;64.03;101439.06;5050856;28;20044;-68
2022/10/17 02:11:17;;;;;;;10.30;8.63;;;;;;;18.90;64.08;101440.78;5050315;28;20431;-69
2022/10/17 02:14:14;;;;;;;10.63;8.52;;;;;;;18.91;64.47;101434.31;5050394;28;20347;-68
2022/10/17 02:16:56;;;;;;;10.60;8.48;;;;;;;18.93;64.02;101440.47;5052040;28;20433;-68
2022/10/17 02:19:28;;;;;;;15.55;8.82;;;;;;;18.95;64.03;101452.06;5052015;28;20041;-68
2022/10/17 02:22:15;;;;;;;12.50;8.65;;;;;;;18.96;64.36;101447.50;5050320;28;20503;-68
2022/10/17 02:24:48;;;;;;;14.80;8.35;;;;;;;18.97;64.11;101446.47;5050577;28;20048;-67
2022/10/17 02:27:32;;;;;;;10.77;8.48;;;;;;;18.97;64.35;101438.31;5051825;28;20053;-68
2022/10/17 02:30:13;;;;;;;10.77;9.00;;;;;;;18.96;64.15;101434.75;5051311;28;20033;-68
2022/10/17 02:32:54;;;;;;;9.27;8.30;;;;;;;18.95;64.45;101438.47;5051544;28;20045;-68
2022/10/17 02:35:24;;;;;;;11.15;8.35;;;;;;;18.95;64.46;101437.59;5051321;28;20057;-68
2022/10/17 02:37:52;;;;;;;9.25;8.30;;;;;;;18.97;64.31;101435.59;5051753;28;20095;-68
2022/10/17 02:40:23;;;;;;;12.70;8.73;;;;;;;18.98;64.38;101431.88;5050264;28;20164;-68
2022/10/17 02:42:53;;;;;;;10.73;8.95;;;;;;;18.99;64.64;101431.72;5050182;28;20068;-67
2022/10/17 02:45:24;;;;;;;13.23;8.93;;;;;;;19.00;64.48;101444.31;5050654;28;20449;-68
2022/10/17 02:48:03;;;;;;;12.40;9.40;;;;;;;19.01;64.64;101437.00;5038762;28;20041;-67
2022/10/17 02:50:43;;;;;;;9.05;8.10;;;;;;;19.00;64.47;101436.16;5051304;28;20059;-68
2022/10/17 02:53:27;;;;;;;11.85;7.95;;;;;;;19.01;64.61;101437.88;5050001;28;20127;-68
2022/10/17 02:55:58;;;;;;;9.50;8.32;;;;;;;19.03;64.66;101433.13;5049568;28;20072;-68
2022/10/17 02:58:30;;;;;;;11.10;8.18;;;;;;;19.04;64.80;101440.28;5049742;28;20051;-68
2022/10/17 03:00:58;;;;;;;12.02;8.00;;;;;;;19.04;64.58;101443.00;5050021;28;20041;-68
2022/10/17 03:03:29;;;;;;;9.45;7.88;;;;;;;19.05;64.90;101435.69;5050018;28;20072;-68
2022/10/17 03:06:00;;;;;;;10.57;8.20;;;;;;;19.08;64.88;101442.72;5049752;28;20139;-67
2022/10/17 03:08:27;;;;;;;11.85;8.07;;;;;;;19.07;64.62;101433.69;5049655;28;20045;-67
2022/10/17 03:10:55;;;;;;;13.30;8.82;;;;;;;19.09;64.96;101434.41;5050023;28;20053;-68
2022/10/17 03:13:22;;;;;;;13.40;8.15;;;;;;;19.11;64.97;101437.81;5049608;28;20048;-68
2022/10/17 03:15:49;;;;;;;10.35;7.85;;;;;;;19.12;64.79;101438.69;5049343;28;20128;-68
2022/10/17 03:18:15;;;;;;;9.98;7.90;;;;;;;19.12;64.84;101438.69;5049655;28;20048;-67
2022/10/17 03:20:43;;;;;;;11.68;8.05;;;;;;;19.12;64.63;101435.97;5049787;28;20193;-68
2022/10/17 03:23:10;;;;;;;15.07;8.05;;;;;;;19.11;65.01;101437.81;5049499;28;20048;-68
2022/10/17 03:25:38;;;;;;;9.48;8.45;;;;;;;19.13;65.09;101440.41;5050853;28;20373;-69
2022/10/17 03:28:05;;;;;;;11.55;8.30;;;;;;;19.15;64.85;101438.38;5051072;28;20045;-68
2022/10/17 03:30:32;;;;;;;11.60;8.05;;;;;;;19.18;64.92;101447.13;5049225;28;20072;-68
2022/10/17 03:32:59;;;;;;;9.65;7.75;;;;;;;19.19;64.90;101443.38;5049461;28;20042;-68
2022/10/17 03:35:27;;;;;;;10.73;7.95;;;;;;;19.20;64.88;101450.53;5049452;28;20581;-68
2022/10/17 03:37:55;;;;;;;13.18;8.02;;;;;;;19.20;65.03;101445.09;5049630;28;20049;-68
2022/10/17 03:40:24;;;;;;;10.75;7.40;;;;;;;19.23;65.06;101452.09;5049606;28;20052;-69
2022/10/17 03:42:51;;;;;;;10.00;7.85;;;;;;;19.25;64.82;101441.91;5049366;28;20118;-68
2022/10/17 03:45:22;;;;;;;10.82;8.65;;;;;;;19.26;64.72;101440.91;5050549;28;20438;-67
2022/10/17 03:47:50;;;;;;;12.75;8.18;;;;;;;19.29;64.72;101448.78;5049229;28;20055;-68
2022/10/17 03:50:16;;;;;;;10.63;8.13;;;;;;;19.29;64.99;101452.38;5050878;28;20437;-68
2022/10/17 03:52:47;;;;;;;10.15;7.90;;;;;;;19.30;64.79;101442.31;5049281;28;20048;-68
2022/10/17 03:55:15;;;;;;;11.27;8.15;;;;;;;19.30;64.90;101445.91;5049220;28;20095;-69
2022/10/17 03:57:42;;;;;;;11.52;8.48;;;;;;;19.30;64.97;101443.19;5050570;28;20068;-68
2022/10/17 04:00:12;;;;;;;10.10;7.78;;;;;;;19.29;64.85;101438.75;5049246;28;20064;-68
2022/10/17 04:02:48;;;;;;;8.80;7.57;;;;;;;19.32;64.81;101443.03;5049298;28;20045;-68
2022/10/17 04:05:17;;;;;;;15.63;8.30;;;;;;;19.31;64.76;101439.44;5052851;28;20569;-67
2022/10/17 04:07:44;;;;;;;11.48;8.18;;;;;;;19.32;65.07;101434.88;5054547;28;20041;-68
2022/10/17 04:10:12;;;;;;;11.15;8.77;;;;;;;19.34;64.64;101430.16;5053045;28;20086;-68
2022/10/17 04:12:39;;;;;;;12.23;7.82;;;;;;;19.32;64.96;101433.03;5054246;28;20037;-68
2022/10/17 04:15:06;;;;;;;11.65;8.70;;;;;;;19.33;64.71;101442.91;5053857;28;20041;-68
2022/10/17 04:17:34;;;;;;;12.32;7.32;;;;;;;19.35;64.83;101442.75;5052993;28;20515;-67
2022/10/17 04:20:04;;;;;;;12.65;8.57;;;;;;;19.35;64.83;101443.63;5053065;28;20499;-68
2022/10/17 04:22:31;;;;;;;10.75;7.80;;;;;;;19.39;65.08;101432.41;5052819;28;20076;-68
2022/10/17 04:25:01;;;;;;;12.18;8.68;;;;;;;19.39;64.87;101437.88;5053102;28;20083;-67
2022/10/17 04:27:37;;;;;;;10.30;7.90;;;;;;;19.39;64.95;101438.72;5037581;28;20045;-68
2022/10/17 04:30:05;;;;;;;10.30;7.07;;;;;;;19.41;65.06;101438.56;5052831;28;20132;-68
2022/10/17 04:32:37;;;;;;;14.77;8.30;;;;;;;19.42;65.18;101452.03;5054093;28;20045;-67
2022/10/17 04:35:14;;;;;;;14.13;7.75;;;;;;;19.44;65.32;101463.63;5052553;28;20049;-68
2022/10/17 04:37:46;;;;;;;12.32;7.38;;;;;;;19.48;64.97;101466.91;5052488;28;20079;-68
2022/10/17 04:40:17;;;;;;;10.20;7.93;;;;;;;19.52;65.06;101473.78;5052801;28;20079;-68
2022/10/17 04:42:44;;;;;;;13.30;8.07;;;;;;;19.55;65.10;101459.88;5052385;28;20056;-68
2022/10/17 04:45:18;;;;;;;11.48;8.38;;;;;;;19.59;65.18;101464.03;5052383;28;20045;-68
2022/10/17 04:47:46;;;;;;;10.23;7.47;;;;;;;19.60;65.10;101474.78;5052534;28;20131;-68
2022/10/17 04:50:12;;;;;;;10.43;7.63;;;;;;;19.63;65.04;101476.31;5052396;28;20041;-69
2022/10/17 04:52:39;;;;;;;16.45;7.22;;;;;;;19.64;65.18;101469.88;5053514;28;20044;-68
2022/10/17 04:55:07;;;;;;;9.55;7.10;;;;;;;19.64;65.22;101476.19;5052066;28;20095;-68
2022/10/17 04:57:34;;;;;;;10.77;6.95;;;;;;;19.65;64.82;101483.34;5052291;28;20037;-68
2022/10/17 05:00:14;;;;;;;15.10;7.40;;;;;;;19.65;65.13;101477.03;5052186;28;20130;-68
2022/10/17 05:03:02;;;;;;;9.88;7.20;;;;;;;19.66;64.99;101479.59;5052101;28;20045;-68
2022/10/17 05:05:29;;;;;;;15.05;7.75;;;;;;;19.67;65.08;101485.91;5053291;28;20430;-69
2022/10/17 05:07:56;;;;;;;8.85;7.03;;;;;;;19.67;64.81;101484.03;5052211;28;20041;-68
2022/10/17 05:10:28;;;;;;;10.15;7.43;;;;;;;19.69;65.00;101486.63;5051978;28;20157;-69
2022/10/17 05:12:56;;;;;;;10.55;7.40;;;;;;;19.71;64.91;101490.03;5051807;28;20053;-68
2022/10/17 05:15:28;;;;;;;10.23;6.97;;;;;;;19.72;65.03;101489.03;5051032;28;20041;-69
2022/10/17 05:17:55;;;;;;;9.45;6.70;;;;;;;19.74;65.06;101488.88;5051789;28;20495;-69
2022/10/17 05:20:24;;;;;;;8.73;6.70;;;;;;;19.74;64.74;101497.91;5052145;28;20470;-68
2022/10/17 05:22:51;;;;;;;8.93;6.65;;;;;;;19.77;64.99;101499.47;5051554;28;20095;-68
2022/10/17 05:25:20;;;;;;;10.20;7.15;;;;;;;19.76;64.98;101495.03;5051551;28;20036;-68
2022/10/17 05:27:48;;;;;;;11.95;6.68;;;;;;;19.77;64.88;101491.31;5051425;28;20044;-68
2022/10/17 05:30:16;;;;;;;9.48;6.70;;;;;;;19.77;64.76;101505.78;5051478;28;20573;-69
2022/10/17 05:32:43;;;;;;;10.88;7.00;;;;;;;19.76;64.73;101503.22;5051461;28;20380;-69
2022/10/17 05:35:14;;;;;;;10.15;7.07;;;;;;;19.74;64.52;101503.38;5051338;28;20033;-69
2022/10/17 05:37:41;;;;;;;8.57;6.38;;;;;;;19.74;64.62;101511.53;5035024;28;20075;-68
2022/10/17 05:40:09;;;;;;;7.85;6.65;;;;;;;19.74;64.69;101514.28;5051447;28;20041;-68
2022/10/17 05:42:35;;;;;;;7.50;6.47;;;;;;;19.74;64.68;101505.25;5051324;28;20099;-69
2022/10/17 05:45:03;;;;;;;11.82;6.95;;;;;;;19.73;64.86;101511.69;5050911;28;20566;-69
2022/10/17 05:47:29;;;;;;;9.80;7.00;;;;;;;19.73;64.53;101522.59;5051490;28;20045;-69
2022/10/17 05:49:57;;;;;;;11.32;7.00;;;;;;;19.73;64.71;101522.59;5051182;28;20399;-68
2022/10/17 05:52:30;;;;;;;11.95;6.72;;;;;;;19.74;64.53;101527.91;5051094;28;20041;-67
2022/10/17 05:55:11;;;;;;;10.80;6.68;;;;;;;19.75;64.47;101520.59;5050905;28;20048;-67
2022/10/17 05:57:38;;;;;;;9.48;6.80;;;;;;;19.74;64.71;101525.19;5031122;28;20054;-68
2022/10/17 06:00:09;;;;;;;9.80;7.35;;;;;;;19.75;64.51;101526.88;5039194;28;20075;-68
2022/10/17 06:02:47;;;;;;;12.07;7.25;;;;;;;19.76;64.90;101530.47;5050883;28;20556;-68
2022/10/17 06:05:18;;;;;;;8.63;7.38;;;;;;;19.75;64.80;101537.78;5050133;28;20056;-68
2022/10/17 06:07:45;;;;;;;9.52;7.07;;;;;;;19.75;64.57;101532.34;5050768;28;20569;-68
2022/10/17 06:10:15;;;;;;;8.48;6.80;;;;;;;19.75;64.85;101532.34;5050924;28;20041;-69
2022/10/17 06:12:44;;;;;;;10.93;6.60;;;;;;;19.75;64.88;101534.22;5051626;28;20041;-69
2022/10/17 06:15:14;;;;;;;9.60;6.75;;;;;;;19.75;64.69;101534.22;5052210;28;20033;-68
2022/10/17 06:17:44;;;;;;;10.07;6.82;;;;;;;19.73;64.81;101533.50;5050498;28;20073;-69
2022/10/17 06:20:10;;;;;;;9.68;7.50;;;;;;;19.73;64.74;101528.91;5051962;28;20029;-68
2022/10/17 06:22:37;;;;;;;9.27;6.63;;;;;;;19.74;64.59;101540.66;5051408;28;20041;-68
2022/10/17 06:25:11;;;;;;;9.63;7.43;;;;;;;19.74;64.99;101546.97;5050365;28;20806;-69
2022/10/17 06:27:37;;;;;;;9.95;6.78;;;;;;;19.75;64.71;101543.25;5051060;28;20051;-69
2022/10/17 06:30:04;;;;;;;11.65;7.05;;;;;;;19.77;64.99;101549.41;5050322;28;20568;-69
2022/10/17 06:32:31;;;;;;;10.25;7.13;;;;;;;19.79;64.92;101549.25;5050358;28;20051;-68
2022/10/17 06:34:58;;;;;;;9.27;6.85;;;;;;;19.82;65.14;101559.84;5049893;28;20036;-69
2022/10/17 06:37:30;;;;;;;10.45;7.03;;;;;;;19.85;64.93;101548.63;5050302;28;20052;-67
2022/10/17 06:40:05;;;;;;;10.45;7.05;;;;;;;19.89;64.76;101556.38;5050274;28;20037;-70
2022/10/17 06:42:33;;;;;;;10.90;7.28;;;;;;;19.90;65.05;101551.75;5050085;28;20076;-70
2022/10/17 06:45:12;;;;;;;12.70;7.25;;;;;;;19.92;64.83;101547.03;5050123;28;20051;-70
2022/10/17 06:47:57;;;;;;;12.32;7.25;;;;;;;19.93;64.80;101544.13;5051759;28;20133;-70
2022/10/17 06:50:39;;;;;;;10.38;7.78;;;;;;;19.95;64.60;101550.31;5050153;28;20120;-70
2022/10/17 06:53:12;;;;;;;16.27;7.68;;;;;;;19.98;64.81;101552.72;5050066;28;20049;-70
2022/10/17 06:56:03;;;;;;;9.52;6.97;;;;;;;20.01;64.96;101551.56;5040689;28;20041;-70
2022/10/17 06:58:43;;;;;;;8.90;7.05;;;;;;;20.04;64.80;101561.28;5050076;28;20110;-70
2022/10/17 07:01:22;;;;;;;11.23;7.20;;;;;;;20.06;64.92;101554.69;5050149;28;20040;-70
2022/10/17 07:06:23;;;;;;;10.00;6.78;;;;;;;20.11;64.65;101566.00;5049160;28;20037;-69
2022/10/17 07:08:51;;;;;;;9.32;6.70;;;;;;;20.15;64.90;101569.28;5054309;28;20041;-70
2022/10/17 07:11:19;;;;;;;9.18;6.88;;;;;;;20.17;65.16;101565.41;5049730;28;20071;-69
2022/10/17 07:13:49;;;;;;;9.57;6.82;;;;;;;20.20;64.92;101569.69;5049437;28;20049;-69
2022/10/17 07:16:21;;;;;;;10.75;7.60;;;;;;;20.25;64.76;101573.66;5050483;28;20041;-69
2022/10/17 07:18:54;;;;;;;9.75;7.18;;;;;;;20.29;65.02;101575.06;5049810;28;20052;-70
2022/10/17 07:21:21;;;;;;;7.20;6.47;;;;;;;20.34;65.10;101571.03;5049740;28;20083;-69
2022/10/17 07:23:48;;;;;;;12.55;7.90;;;;;;;20.37;64.76;101570.72;5051024;28;20037;-70
2022/10/17 07:26:16;;;;;;;10.90;7.40;;;;;;;20.41;65.07;101574.88;5033396;28;20470;-69
2022/10/17 07:28:44;;;;;;;10.15;7.20;;;;;;;20.42;65.03;101580.19;5051008;28;20352;-69
2022/10/17 07:31:44;;;;;;;11.20;7.13;;;;;;;20.49;64.65;101586.72;5045919;28;20051;-69
2022/10/17 07:34:15;;;;;;;9.63;6.88;;;;;;;20.50;64.76;101590.31;5049362;28;20037;-70
2022/10/17 07:36:43;;;;;;;9.45;6.85;;;;;;;20.53;64.63;101599.06;5049203;28;20041;-70
2022/10/17 07:39:12;;;;;;;11.05;6.85;;;;;;;20.54;64.60;101602.63;5053585;28;20495;-69
2022/10/17 07:41:39;;;;;;;11.27;7.60;;;;;;;20.56;64.92;101603.34;5053320;28;20127;-70
2022/10/17 07:44:11;;;;;;;9.00;6.35;;;;;;;20.57;64.60;101614.09;5053824;28;20049;-70
2022/10/17 07:46:44;;;;;;;9.80;7.63;;;;;;;20.61;64.63;101620.09;5053142;28;20041;-69
2022/10/17 07:49:11;;;;;;;9.77;6.50;;;;;;;20.63;64.76;101627.13;5044860;28;20052;-69
2022/10/17 07:51:39;;;;;;;11.60;6.72;;;;;;;20.66;64.66;101627.84;5036870;28;20518;-68
2022/10/17 07:54:07;;;;;;;13.20;7.55;;;;;;;20.67;64.75;101635.88;5054584;28;20094;-68
2022/10/17 07:56:33;;;;;;;13.45;6.82;;;;;;;20.68;64.84;101645.78;5053712;28;20098;-68
2022/10/17 07:59:00;;;;;;;10.30;7.45;;;;;;;20.71;64.61;101661.84;5054256;28;20734;-68
2022/10/17 08:01:32;;;;;;;14.80;6.93;;;;;;;20.72;64.13;101674.47;5052528;28;20041;-69
2022/10/17 08:04:03;;;;;;;9.70;7.85;;;;;;;20.72;64.39;101687.25;5054146;28;20037;-71
2022/10/17 08:06:29;;;;;;;7.97;6.80;;;;;;;20.73;64.20;101687.09;5053064;28;20044;-71
2022/10/17 08:08:57;;;;;;;11.75;7.20;;;;;;;20.72;64.40;101699.03;5054422;28;20041;-71
2022/10/17 08:11:24;;;;;;;11.98;7.57;;;;;;;20.73;64.14;101705.34;5052854;28;20114;-71
2022/10/17 08:14:09;;;;;;;9.25;6.60;;;;;;;20.72;64.19;101720.88;5053938;28;20041;-72
2022/10/17 08:16:36;;;;;;;8.55;6.25;;;;;;;20.72;64.32;101715.41;5053795;28;20518;-71
2022/10/17 08:19:03;;;;;;;11.27;6.72;;;;;;;20.72;64.15;101717.28;5054222;28;20045;-71
2022/10/17 08:21:30;;;;;;;7.95;7.00;;;;;;;20.72;64.53;101718.16;5054090;28;20055;-71
2022/10/17 08:23:58;;;;;;;9.27;6.38;;;;;;;20.74;64.24;101716.13;5052554;28;20052;-72
2022/10/17 08:26:24;;;;;;;8.02;6.10;;;;;;;20.76;64.59;101724.16;5053567;28;20037;-71
2022/10/17 08:28:51;;;;;;;9.23;6.30;;;;;;;20.79;64.04;101726.59;5053952;28;20052;-71
2022/10/17 08:31:19;;;;;;;7.90;5.50;;;;;;;20.82;64.09;101737.22;5054131;28;20094;-71
2022/10/17 08:33:47;;;;;;;11.77;5.93;;;;;;;20.85;64.51;101735.03;5053879;28;20045;-71
2022/10/17 08:36:16;;;;;;;8.30;5.57;;;;;;;20.87;64.37;101749.41;5053673;28;20392;-71
2022/10/17 08:38:43;;;;;;;8.18;5.30;;;;;;;20.90;64.13;101767.34;5053832;28;20505;-71
2022/10/17 08:41:30;;;;;;;10.15;5.30;;;;;;;20.90;64.35;101760.00;5053690;28;20048;-70
2022/10/17 08:44:48;;;;;;;7.32;4.95;;;;;;;20.92;64.30;101771.63;5053656;28;20048;-71
2022/10/17 08:47:21;;;;;;;9.05;5.85;;;;;;;20.96;63.97;101771.34;5030886;28;20459;-71
2022/10/17 08:49:54;;;;;;;8.88;5.25;;;;;;;20.97;64.07;101770.31;5051484;28;20500;-71
2022/10/17 08:52:36;;;;;;;8.90;5.88;;;;;;;21.00;64.18;101772.75;5053319;28;20540;-71
2022/10/17 08:55:17;;;;;;;7.88;5.60;;;;;;;21.02;64.04;101778.91;5053369;28;20491;-71
2022/10/17 08:57:47;;;;;;;6.80;5.60;;;;;;;21.04;63.97;101771.41;5053242;28;20059;-71
2022/10/17 09:00:19;;;;;;;14.27;6.20;;;;;;;21.04;64.28;101775.00;5051862;28;20053;-71
2022/10/17 09:03:07;;;;;;;10.23;5.75;;;;;;;21.05;64.28;101778.59;5051908;28;20045;-71
2022/10/17 09:05:45;;;;;;;12.77;5.55;;;;;;;21.07;63.73;101779.31;5053299;28;20044;-71
2022/10/17 09:08:21;;;;;;;9.27;5.80;;;;;;;21.08;64.13;101787.34;5052997;28;20049;-71
2022/10/17 09:11:06;;;;;;;10.40;5.32;;;;;;;21.10;64.15;101782.59;5053156;28;20052;-71
2022/10/17 09:14:15;;;;;;;8.60;5.90;;;;;;;21.12;64.19;101776.97;5051473;28;20556;-72
2022/10/17 09:16:53;;;;;;;8.00;5.47;;;;;;;21.14;64.04;101770.34;5048286;28;20111;-71
2022/10/17 09:19:40;;;;;;;7.53;5.30;;;;;;;21.16;64.07;101787.44;5053144;28;20045;-71
2022/10/17 09:22:16;;;;;;;7.88;5.70;;;;;;;21.18;63.92;101779.06;5053124;28;20049;-71
2022/10/17 09:24:51;;;;;;;5.82;4.90;;;;;;;21.21;64.28;101784.22;5053011;28;20044;-72
2022/10/17 09:27:33;;;;;;;7.78;5.45;;;;;;;21.21;64.21;101782.34;5053110;28;20044;-71
2022/10/17 09:30:24;;;;;;;8.15;4.60;;;;;;;21.23;64.18;101793.16;5052812;28;20053;-71
2022/10/17 09:33:11;;;;;;;8.13;5.05;;;;;;;21.25;64.03;101791.13;5052625;28;20102;-72
2022/10/17 09:35:59;;;;;;;6.47;4.90;;;;;;;21.25;63.86;101840.31;5052758;28;20119;-71
2022/10/17 09:38:37;;;;;;;7.57;5.93;;;;;;;21.23;64.07;101869.66;5052336;28;20107;-71
2022/10/17 09:41:12;;;;;;;8.93;5.65;;;;;;;21.22;64.14;101903.44;5051632;28;20029;-72
2022/10/17 09:44:23;;;;;;;14.25;6.00;;;;;;;21.20;64.04;101782.50;5051329;28;20075;-74
2022/10/17 09:47:01;;;;;;;12.07;6.07;;;;;;;21.15;63.85;101787.59;5052371;28;20442;-72
2022/10/17 09:49:33;;;;;;;9.07;6.20;;;;;;;21.11;64.23;101772.53;5052570;28;20037;-72
2022/10/17 09:52:02;;;;;;;10.70;6.40;;;;;;;21.09;64.12;101763.63;5052267;28;20048;-72
2022/10/17 09:54:41;;;;;;;10.15;6.07;;;;;;;21.06;64.56;101762.06;5050801;28;20041;-72
2022/10/17 09:57:09;;;;;;;8.32;5.80;;;;;;;21.06;64.57;101778.44;5050941;28;20053;-72
2022/10/17 09:59:46;;;;;;;10.00;5.72;;;;;;;21.05;64.60;101784.91;5052286;28;20457;-68
2022/10/17 10:02:22;;;;;;;12.30;6.45;;;;;;;21.05;64.42;101804.03;5051995;28;20049;-78
2022/10/17 10:05:03;;;;;;;13.25;6.55;;;;;;;21.08;64.76;101811.94;5052050;28;20048;-70
2022/10/17 10:07:35;;;;;;;10.25;6.68;;;;;;;21.10;64.71;101812.63;5043548;28;20041;-70
2022/10/17 10:10:05;;;;;;;10.68;6.90;;;;;;;21.14;65.04;101826.84;5052019;28;20037;-70
2022/10/17 10:12:34;;;;;;;11.38;6.43;;;;;;;21.18;65.02;101833.72;5050618;28;20086;-70
2022/10/17 10:15:31;;;;;;;9.38;5.88;;;;;;;21.21;65.05;101836.13;5051541;28;20041;-71
2022/10/17 10:17:58;;;;;;;11.10;6.22;;;;;;;21.26;64.77;101809.25;5031631;28;20095;-70
2022/10/17 10:20:36;;;;;;;9.43;6.13;;;;;;;21.28;65.00;101800.91;5032198;28;20427;-71
2022/10/17 10:23:12;;;;;;;8.30;6.07;;;;;;;21.27;64.96;101802.75;5031307;28;20495;-70
2022/10/17 10:25:52;;;;;;;10.48;6.68;;;;;;;21.29;65.07;101819.88;5037831;28;20041;-71
2022/10/17 10:28:22;;;;;;;8.63;5.72;;;;;;;21.31;64.99;101828.75;5051364;28;20045;-72
2022/10/17 10:30:51;;;;;;;9.55;6.13;;;;;;;21.30;65.12;101821.59;5051697;28;20045;-70
2022/10/17 10:33:20;;;;;;;17.92;6.15;;;;;;;21.28;64.95;101833.69;5050973;28;20049;-71
2022/10/17 10:35:56;;;;;;;10.70;6.00;;;;;;;21.27;65.18;101835.56;5051208;28;20044;-71
2022/10/17 10:38:23;;;;;;;12.15;7.38;;;;;;;21.27;65.14;101840.16;5050964;28;20446;-71
2022/10/17 10:41:10;;;;;;;13.20;6.57;;;;;;;21.27;65.45;101848.34;5051533;28;20049;-70
2022/10/17 10:43:41;;;;;;;8.35;6.15;;;;;;;21.30;65.33;101848.91;5047096;28;20515;-71
2022/10/17 10:46:20;;;;;;;11.65;6.45;;;;;;;21.32;65.22;101855.06;5051532;28;20383;-70
2022/10/17 10:48:49;;;;;;;10.05;6.60;;;;;;;21.33;65.29;101848.59;5051209;28;20037;-70
2022/10/17 10:51:21;;;;;;;8.80;6.28;;;;;;;21.35;65.42;101852.03;5051351;28;20381;-70
2022/10/17 10:54:22;;;;;;;10.50;6.75;;;;;;;21.39;65.55;101852.59;5050916;28;20052;-71
2022/10/17 10:56:51;;;;;;;11.57;6.30;;;;;;;21.41;65.24;101854.16;5050752;28;20336;-71
2022/10/17 10:59:27;;;;;;;10.27;5.47;;;;;;;21.42;65.06;101868.66;5050622;28;20094;-71
2022/10/17 11:02:01;;;;;;;9.02;6.22;;;;;;;21.43;65.40;101870.38;5050920;28;20492;-71
2022/10/17 11:04:51;;;;;;;6.90;5.70;;;;;;;21.47;65.37;101878.13;5051494;28;20052;-71
2022/10/17 11:07:30;;;;;;;9.60;6.10;;;;;;;21.50;65.27;101882.41;5050582;28;20307;-71
2022/10/17 11:10:11;;;;;;;10.85;6.32;;;;;;;21.54;65.42;101898.34;5050953;28;20064;-70
2022/10/17 11:12:45;;;;;;;11.00;6.07;;;;;;;21.59;65.47;101888.84;5050526;28;20132;-71
2022/10/17 11:15:30;;;;;;;9.85;5.88;;;;;;;21.62;65.30;101886.69;5050609;28;20411;-71
2022/10/17 11:18:04;;;;;;;10.10;6.10;;;;;;;21.66;65.29;101895.44;5050671;28;20067;-71
2022/10/17 11:20:46;;;;;;;8.80;5.85;;;;;;;21.68;65.24;101896.13;5050686;28;20083;-71
2022/10/17 11:23:20;;;;;;;8.93;6.13;;;;;;;21.70;65.22;101908.63;5049205;28;20515;-71
2022/10/17 11:25:53;;;;;;;13.00;6.43;;;;;;;21.73;65.43;101913.78;5050731;28;20178;-71
2022/10/17 11:28:23;;;;;;;10.40;7.20;;;;;;;21.76;65.34;101916.22;5050296;28;20481;-71
2022/10/17 11:30:56;;;;;;;10.85;8.23;;;;;;;21.79;65.09;101918.63;5050899;28;20045;-71
2022/10/17 11:33:45;;;;;;;11.48;8.68;;;;;;;21.81;65.21;101933.00;5050305;28;20136;-71
2022/10/17 11:36:15;;;;;;;11.65;8.80;;;;;;;21.83;65.08;101938.31;5050622;28;20053;-71
2022/10/17 11:39:13;;;;;;;10.35;8.20;;;;;;;21.83;65.20;101935.59;5050671;28;20087;-71
2022/10/17 11:41:41;;;;;;;9.20;7.38;;;;;;;21.86;65.01;101938.00;5050620;28;20047;-71
2022/10/17 11:44:25;;;;;;;8.90;7.78;;;;;;;21.86;65.21;101943.47;5050276;28;20037;-71
2022/10/17 11:47:03;;;;;;;10.07;7.15;;;;;;;21.88;65.23;101946.91;5050656;28;20380;-72
2022/10/17 11:49:36;;;;;;;12.30;8.35;;;;;;;21.89;65.15;101945.91;5050518;28;20079;-71
2022/10/17 11:52:36;;;;;;;13.05;8.15;;;;;;;21.89;64.99;101948.63;5050623;28;20037;-70